createdAt,value
2023-02-08T00:08:23.893Z,27.50
2023-02-08T00:29:10.690Z,25.70
2023-02-08T00:33:40.083Z,24.80
2023-02-08T00:38:09.410Z,26.80
2023-02-08T00:42:38.814Z,24.50
2023-02-08T01:08:25.723Z,23.30
2023-02-08T01:12:55.793Z,24.30
2023-02-08T01:17:26.298Z,23.80
2023-02-08T01:47:21.927Z,26.70
2023-02-08T01:51:54.473Z,26.70
2023-02-08T01:56:07.386Z,28.30
2023-02-08T02:00:42.145Z,28.20
2023-02-08T02:05:12.119Z,29.60
2023-02-08T02:09:34.160Z,30.30
2023-02-08T02:14:04.190Z,31.90
2023-02-08T02:18:26.724Z,34.20
2023-02-08T02:22:59.508Z,33.50
2023-02-08T02:27:31.137Z,35.00
2023-02-08T02:32:08.212Z,34.20
2023-02-08T02:36:48.438Z,37.30
2023-02-08T02:41:24.700Z,35.00
2023-02-08T03:12:06.907Z,38.60
2023-02-08T03:16:57.712Z,35.90
2023-02-08T03:21:38.878Z,36.60
2023-02-08T03:26:09.322Z,36.50
2023-02-08T03:47:35.172Z,38.00
2023-02-08T03:51:47.476Z,36.90
2023-02-08T03:56:09.964Z,37.00
2023-02-08T04:19:00.017Z,38.20
2023-02-08T04:23:23.374Z,36.50
2023-02-08T04:27:52.776Z,33.90
2023-02-08T04:32:16.342Z,34.30
2023-02-08T04:36:46.718Z,35.50
2023-02-08T05:03:54.740Z,36.50
2023-02-08T05:08:06.770Z,34.90
2023-02-08T05:12:23.782Z,34.50
2023-02-08T05:16:44.566Z,33.40
2023-02-08T05:20:59.045Z,33.50
2023-02-08T05:25:19.131Z,34.10
2023-02-08T06:03:34.102Z,38.30
2023-02-08T06:07:45.879Z,36.60
2023-02-08T06:12:07.533Z,38.10
2023-02-08T06:16:35.126Z,34.30
2023-02-08T06:20:57.730Z,38.00
2023-02-08T06:25:06.188Z,37.80
2023-02-08T07:23:45.899Z,36.20
2023-02-08T07:28:14.885Z,36.80
2023-02-08T07:32:26.610Z,36.10
2023-02-08T07:36:55.830Z,36.20
2023-02-08T07:41:26.214Z,34.80
2023-02-08T07:45:45.543Z,35.50
